createdAt,value
2019-03-28T00:01:15.912Z,7.77
2019-03-28T00:25:02.142Z,9.23
2019-03-28T00:27:30.610Z,9.73
2019-03-28T00:29:59.126Z,9.10
2019-03-28T00:32:29.134Z,13.57
2019-03-28T00:34:57.651Z,9.10
2019-03-28T00:37:26.277Z,10.17
2019-03-28T00:39:55.358Z,10.70
2019-03-28T00:42:23.789Z,9.80
2019-03-28T00:44:52.293Z,9.73
2019-03-28T00:47:22.044Z,10.23
2019-03-28T00:49:50.524Z,8.37
2019-03-28T00:52:18.994Z,10.70
2019-03-28T00:54:47.540Z,11.87
2019-03-28T00:57:15.992Z,11.27
2019-03-28T00:59:44.476Z,9.57
2019-03-28T01:02:12.974Z,9.07
2019-03-28T01:04:41.452Z,9.53
2019-03-28T01:07:09.922Z,9.50
2019-03-28T01:09:38.435Z,9.57
2019-03-28T01:12:07.174Z,11.37
2019-03-28T01:14:35.670Z,10.30
2019-03-28T01:17:04.172Z,8.90
2019-03-28T01:19:32.674Z,11.37
2019-03-28T01:22:01.342Z,8.57
2019-03-28T01:24:29.799Z,9.37
2019-03-28T01:26:58.956Z,8.93
2019-03-28T01:29:28.098Z,9.83
2019-03-28T01:31:56.562Z,9.67
2019-03-28T01:34:25.051Z,8.93
2019-03-28T01:36:53.516Z,8.93
2019-03-28T01:39:22.002Z,10.53
2019-03-28T01:41:50.472Z,8.70
2019-03-28T01:44:18.966Z,9.83
2019-03-28T01:46:47.434Z,9.77
2019-03-28T01:49:15.930Z,9.33
2019-03-28T01:51:44.396Z,10.83
2019-03-28T01:54:12.896Z,11.40
2019-03-28T01:56:41.361Z,10.40
2019-03-28T01:59:09.855Z,9.20
2019-03-28T02:01:38.325Z,10.73
2019-03-28T02:04:06.790Z,10.97
2019-03-28T02:06:35.308Z,10.83
2019-03-28T02:09:06.112Z,11.73
2019-03-28T02:11:34.833Z,11.37
2019-03-28T02:14:03.342Z,11.90
2019-03-28T02:16:31.805Z,11.43
2019-03-28T02:19:00.279Z,13.93
2019-03-28T02:21:28.767Z,11.60
2019-03-28T02:23:57.238Z,12.23
2019-03-28T02:26:25.738Z,12.90
2019-03-28T02:28:54.245Z,13.97
2019-03-28T02:31:22.742Z,12.33
2019-03-28T02:33:51.223Z,12.50
2019-03-28T02:36:19.722Z,13.30
2019-03-28T02:38:48.197Z,13.83
2019-03-28T02:41:16.765Z,14.20
2019-03-28T02:43:45.598Z,15.97
2019-03-28T02:46:14.326Z,12.90
2019-03-28T02:48:42.803Z,11.97
2019-03-28T02:51:11.308Z,12.60
2019-03-28T02:53:39.877Z,13.23
2019-03-28T02:56:08.371Z,14.20
2019-03-28T02:58:37.107Z,13.70
2019-03-28T03:01:05.623Z,14.40
2019-03-28T03:03:34.109Z,13.80
2019-03-28T03:06:02.610Z,15.70
2019-03-28T03:08:31.090Z,13.70
2019-03-28T03:10:59.581Z,14.20
2019-03-28T03:13:28.056Z,12.10
2019-03-28T03:15:56.967Z,15.73
2019-03-28T03:18:25.740Z,14.67
2019-03-28T03:20:54.234Z,13.90
2019-03-28T03:23:22.709Z,12.53
2019-03-28T03:25:51.208Z,14.27
2019-03-28T03:28:19.696Z,15.47
2019-03-28T03:30:48.189Z,16.13
2019-03-28T03:33:16.753Z,14.70
2019-03-28T03:35:45.214Z,16.40
2019-03-28T03:38:13.699Z,14.93
2019-03-28T03:40:42.172Z,16.13
2019-03-28T03:43:11.142Z,14.03
2019-03-28T03:45:39.621Z,13.90
2019-03-28T03:48:08.115Z,15.57
2019-03-28T03:50:36.596Z,13.70
2019-03-28T03:53:05.116Z,17.07
2019-03-28T03:55:33.557Z,15.03
2019-03-28T03:58:15.626Z,16.60
2019-03-28T04:00:36.685Z,17.57
2019-03-28T04:03:05.374Z,17.70
2019-03-28T04:05:34.001Z,14.37
2019-03-28T04:08:02.488Z,16.57
2019-03-28T04:10:31.030Z,12.47
2019-03-28T04:12:59.532Z,13.03
2019-03-28T04:15:28.025Z,12.77
2019-03-28T04:17:56.528Z,13.40
2019-03-28T04:20:25.338Z,14.57
2019-03-28T04:22:54.046Z,14.23
2019-03-28T04:25:23.086Z,13.77
2019-03-28T04:27:51.571Z,13.20
2019-03-28T04:30:20.054Z,11.73
2019-03-28T04:32:48.517Z,12.63
2019-03-28T04:35:17.004Z,13.57
2019-03-28T04:37:45.489Z,13.63
2019-03-28T04:40:14.038Z,14.50
2019-03-28T04:42:45.566Z,12.60
2019-03-28T04:45:12.871Z,14.67
2019-03-28T04:47:41.335Z,14.93
2019-03-28T04:50:10.764Z,13.17
2019-03-28T04:52:39.233Z,13.63
2019-03-28T04:55:07.789Z,13.17
2019-03-28T04:57:36.264Z,13.03
2019-03-28T05:00:07.339Z,14.90
2019-03-28T05:02:35.922Z,13.73
2019-03-28T05:05:06.494Z,12.83
2019-03-28T05:07:35.092Z,12.67
2019-03-28T05:10:04.653Z,12.87
2019-03-28T05:12:33.119Z,12.07
2019-03-28T05:15:01.624Z,11.63
2019-03-28T05:17:30.109Z,10.93
2019-03-28T05:19:58.588Z,13.47
2019-03-28T05:22:27.064Z,14.30
2019-03-28T05:24:55.550Z,12.87
2019-03-28T05:27:24.030Z,11.37
2019-03-28T05:29:52.514Z,15.27
2019-03-28T05:32:20.984Z,11.80
2019-03-28T05:34:49.470Z,12.20
2019-03-28T05:37:17.939Z,13.50
2019-03-28T05:39:46.433Z,12.20
2019-03-28T05:42:14.902Z,12.03
2019-03-28T05:44:43.395Z,12.73
2019-03-28T05:47:11.866Z,10.50
2019-03-28T05:49:40.361Z,12.93
2019-03-28T05:52:11.637Z,12.20
2019-03-28T05:54:39.048Z,11.40
2019-03-28T05:57:07.516Z,11.43
2019-03-28T05:59:36.004Z,10.03
2019-03-28T06:02:04.477Z,10.90
2019-03-28T06:04:32.979Z,12.10
2019-03-28T06:07:01.448Z,13.27
2019-03-28T06:09:29.944Z,11.07
2019-03-28T06:11:58.404Z,14.90
2019-03-28T06:14:26.895Z,11.80
2019-03-28T06:16:55.363Z,12.30
2019-03-28T06:19:23.852Z,13.57
2019-03-28T06:21:52.324Z,14.80
2019-03-28T06:24:20.784Z,12.57
2019-03-28T06:26:50.109Z,10.40
2019-03-28T06:29:24.049Z,10.83
2019-03-28T06:31:55.131Z,12.20
2019-03-28T06:34:19.180Z,12.70
2019-03-28T06:36:47.659Z,13.67
2019-03-28T06:39:16.503Z,17.53
2019-03-28T06:41:45.224Z,14.53
2019-03-28T06:44:13.713Z,14.63
2019-03-28T06:46:42.193Z,13.10
2019-03-28T06:49:10.677Z,13.23
2019-03-28T06:51:39.148Z,15.03
2019-03-28T06:54:07.616Z,13.27
2019-03-28T06:56:36.112Z,14.57
2019-03-28T06:59:04.568Z,15.07
2019-03-28T07:01:33.056Z,13.97
2019-03-28T07:04:01.540Z,16.47
2019-03-28T07:06:30.041Z,16.57
2019-03-28T07:08:58.521Z,15.03
2019-03-28T07:11:27.025Z,16.47
2019-03-28T07:13:55.496Z,16.43
2019-03-28T07:16:23.987Z,15.80
2019-03-28T07:18:52.464Z,16.33
2019-03-28T07:21:20.961Z,17.63
2019-03-28T07:23:49.425Z,16.77
2019-03-28T07:26:17.915Z,17.37
2019-03-28T07:28:46.385Z,16.37
2019-03-28T07:31:14.880Z,14.97
2019-03-28T07:33:43.349Z,18.00
2019-03-28T07:36:11.842Z,14.10
2019-03-28T07:38:40.318Z,16.87
2019-03-28T07:41:08.815Z,14.97
2019-03-28T07:43:37.277Z,16.70
2019-03-28T07:46:05.761Z,15.63
2019-03-28T07:48:34.247Z,14.27
2019-03-28T07:51:02.734Z,16.17
2019-03-28T07:53:31.213Z,18.53
2019-03-28T07:55:59.704Z,14.73
2019-03-28T07:58:28.168Z,15.93
2019-03-28T08:00:56.663Z,17.03
2019-03-28T08:03:25.147Z,16.37
2019-03-28T08:05:54.484Z,17.03
2019-03-28T08:08:23.090Z,15.57
2019-03-28T08:10:51.589Z,17.47
2019-03-28T08:13:20.123Z,17.00
2019-03-28T08:15:48.622Z,15.30
2019-03-28T08:18:17.087Z,17.97
2019-03-28T08:20:45.589Z,14.80
2019-03-28T08:23:14.090Z,16.43
2019-03-28T08:25:42.558Z,15.10
2019-03-28T08:28:11.037Z,13.20
2019-03-28T08:30:40.313Z,15.73
2019-03-28T08:33:09.253Z,15.67
2019-03-28T08:35:38.390Z,13.73
2019-03-28T08:38:10.087Z,13.50
2019-03-28T08:40:40.251Z,13.60
2019-03-28T08:43:08.997Z,15.23
2019-03-28T08:45:37.505Z,12.73
2019-03-28T08:48:06.051Z,12.07
2019-03-28T08:50:34.539Z,13.40
2019-03-28T08:53:03.277Z,17.17
2019-03-28T08:55:31.742Z,14.03
2019-03-28T08:58:00.224Z,12.30
2019-03-28T09:00:35.330Z,14.10
2019-03-28T09:02:58.915Z,13.27
2019-03-28T09:05:27.453Z,12.07
2019-03-28T09:07:55.938Z,13.97
2019-03-28T09:10:24.423Z,16.10
2019-03-28T09:12:52.901Z,13.77
2019-03-28T09:15:21.546Z,15.97
2019-03-28T09:17:50.029Z,14.87
2019-03-28T09:20:18.566Z,13.77
2019-03-28T09:22:47.058Z,18.43
2019-03-28T09:25:15.710Z,12.00
2019-03-28T09:27:44.248Z,12.37
2019-03-28T09:30:13.314Z,15.83
2019-03-28T09:32:41.827Z,12.13
2019-03-28T09:35:12.981Z,11.83
2019-03-28T09:37:41.464Z,12.77
2019-03-28T09:40:10.001Z,14.00
2019-03-28T09:42:38.495Z,14.40
2019-03-28T09:45:08.104Z,16.17
2019-03-28T09:47:36.609Z,14.77
2019-03-28T09:50:07.023Z,17.13
2019-03-28T09:52:35.565Z,17.97
2019-03-28T09:55:04.830Z,16.30
2019-03-28T09:57:33.327Z,16.80
2019-03-28T10:00:01.806Z,14.00
2019-03-28T10:02:30.291Z,14.70
2019-03-28T10:04:58.757Z,15.83
2019-03-28T10:07:27.256Z,14.13
2019-03-28T10:09:55.964Z,16.40
2019-03-28T10:12:24.598Z,15.97
2019-03-28T10:14:53.069Z,12.30
2019-03-28T10:17:21.559Z,15.00
2019-03-28T10:19:50.021Z,12.90
2019-03-28T10:22:18.522Z,13.30
2019-03-28T10:24:46.986Z,13.20
2019-03-28T10:27:15.472Z,13.00
2019-03-28T10:29:44.015Z,14.60
2019-03-28T10:32:12.496Z,12.50
2019-03-28T10:34:41.034Z,14.83
2019-03-28T10:37:09.532Z,12.63
2019-03-28T10:39:38.000Z,14.63
2019-03-28T10:42:06.563Z,14.87
2019-03-28T10:44:35.034Z,13.43
2019-03-28T10:47:04.995Z,11.50
2019-03-28T10:49:33.778Z,11.10
2019-03-28T10:52:04.067Z,12.20
2019-03-28T10:54:32.452Z,13.47
2019-03-28T10:57:12.909Z,12.17
2019-03-28T10:59:31.152Z,12.87
2019-03-28T11:01:59.638Z,12.33
2019-03-28T11:04:28.122Z,18.20
2019-03-28T11:06:56.604Z,15.00
2019-03-28T11:09:25.080Z,13.43
2019-03-28T11:11:53.567Z,12.00
2019-03-28T11:14:22.058Z,16.07
2019-03-28T11:16:50.527Z,12.20
2019-03-28T11:19:19.015Z,13.00
2019-03-28T11:21:47.661Z,12.73
2019-03-28T11:24:16.144Z,13.97
2019-03-28T11:26:44.626Z,13.80
2019-03-28T11:29:13.108Z,13.10
2019-03-28T11:31:47.780Z,12.20
2019-03-28T11:34:11.812Z,10.57
2019-03-28T11:36:40.269Z,12.10
2019-03-28T11:39:08.761Z,10.50
2019-03-28T11:41:37.216Z,9.73
2019-03-28T11:44:05.707Z,11.33
2019-03-28T11:46:34.177Z,11.53
2019-03-28T11:49:02.665Z,12.17
2019-03-28T11:51:31.140Z,9.13
2019-03-28T11:53:59.643Z,11.53
2019-03-28T11:56:28.484Z,9.50
2019-03-28T11:58:56.976Z,11.23
2019-03-28T12:01:25.448Z,12.53
2019-03-28T12:03:53.949Z,14.10
2019-03-28T12:06:22.414Z,16.03
2019-03-28T12:08:50.906Z,12.33
2019-03-28T12:11:19.399Z,13.23
2019-03-28T12:13:47.900Z,13.03
2019-03-28T12:16:16.983Z,12.47
2019-03-28T12:18:45.639Z,12.43
2019-03-28T12:21:14.109Z,13.43
2019-03-28T12:23:42.604Z,12.30
2019-03-28T12:26:11.075Z,12.27
2019-03-28T12:28:39.567Z,11.67
2019-03-28T12:31:08.037Z,11.47
2019-03-28T12:33:36.529Z,11.90
2019-03-28T12:36:05.001Z,12.50
2019-03-28T12:38:33.496Z,9.50
2019-03-28T12:41:01.976Z,10.60
2019-03-28T12:43:30.498Z,13.07
2019-03-28T12:45:58.962Z,10.27
2019-03-28T12:48:27.456Z,10.63
2019-03-28T12:50:58.939Z,12.70
2019-03-28T12:53:26.145Z,12.20
2019-03-28T12:55:54.608Z,11.03
2019-03-28T12:58:23.364Z,9.03
2019-03-28T13:00:51.823Z,13.57
2019-03-28T13:03:20.308Z,11.50
2019-03-28T13:05:48.778Z,13.83
2019-03-28T13:08:17.767Z,11.67
2019-03-28T13:10:46.513Z,10.33
2019-03-28T13:13:15.921Z,11.87
2019-03-28T13:15:44.395Z,11.60
2019-03-28T13:18:12.884Z,12.20
2019-03-28T13:20:41.344Z,12.43
2019-03-28T13:23:09.851Z,10.87
2019-03-28T13:25:38.322Z,11.33
2019-03-28T13:28:06.779Z,11.43
2019-03-28T13:30:35.266Z,11.47
2019-03-28T13:33:03.739Z,12.27
2019-03-28T13:35:34.948Z,12.10
2019-03-28T13:38:02.503Z,12.17
2019-03-28T13:40:30.991Z,13.23
2019-03-28T13:42:59.473Z,12.67
2019-03-28T13:45:27.958Z,10.47
2019-03-28T13:47:56.425Z,10.23
2019-03-28T13:50:25.081Z,13.30
2019-03-28T13:52:53.541Z,11.00
2019-03-28T13:55:22.023Z,11.37
2019-03-28T13:57:52.247Z,11.90
2019-03-28T14:00:23.761Z,9.60
2019-03-28T14:02:57.281Z,11.03
2019-03-28T14:05:22.523Z,9.23
2019-03-28T14:07:50.995Z,11.53
2019-03-28T14:10:21.751Z,10.40
2019-03-28T14:12:49.693Z,10.30
2019-03-28T14:15:18.240Z,9.97
2019-03-28T14:17:46.704Z,11.67
2019-03-28T14:20:15.927Z,10.70
2019-03-28T14:22:44.406Z,11.27
2019-03-28T14:25:13.075Z,11.43
2019-03-28T14:27:41.573Z,12.20
2019-03-28T14:30:11.381Z,14.07
2019-03-28T14:32:52.459Z,13.73
2019-03-28T14:35:10.632Z,13.97
2019-03-28T14:37:40.764Z,12.07
2019-03-28T14:40:11.019Z,10.83
2019-03-28T14:42:40.719Z,13.53
2019-03-28T14:45:09.906Z,10.60
2019-03-28T14:47:38.441Z,11.93
2019-03-28T14:50:08.730Z,13.87
2019-03-28T14:52:37.204Z,12.37
2019-03-28T14:55:06.707Z,12.10
2019-03-28T14:57:35.946Z,10.93
2019-03-28T15:00:09.928Z,14.87
2019-03-28T15:02:38.421Z,11.47
2019-03-28T15:05:07.120Z,10.83
2019-03-28T15:07:35.617Z,13.60
2019-03-28T15:10:06.845Z,10.87
2019-03-28T15:12:35.338Z,13.80
2019-03-28T15:15:05.647Z,13.00
2019-03-28T15:17:34.138Z,10.40
2019-03-28T15:20:02.720Z,11.77
2019-03-28T15:22:31.200Z,9.57
2019-03-28T15:24:59.677Z,14.20
2019-03-28T15:27:28.171Z,11.57
2019-03-28T15:29:56.634Z,11.40
2019-03-28T15:32:25.136Z,12.60
2019-03-28T15:34:53.619Z,11.17
2019-03-28T15:37:22.100Z,12.40
2019-03-28T15:39:50.560Z,9.73
2019-03-28T15:42:19.055Z,11.40
2019-03-28T15:44:47.508Z,9.80
2019-03-28T15:47:16.009Z,13.87
2019-03-28T15:49:44.469Z,13.33
2019-03-28T15:52:13.051Z,9.67
2019-03-28T15:54:41.683Z,11.77
2019-03-28T15:57:10.291Z,11.93
2019-03-28T15:59:38.772Z,12.57
2019-03-28T16:02:07.700Z,12.67
2019-03-28T16:04:36.184Z,13.23
2019-03-28T16:07:04.683Z,13.17
2019-03-28T16:09:33.173Z,11.53
2019-03-28T16:12:03.003Z,14.63
2019-03-28T16:14:31.676Z,12.30
2019-03-28T16:17:00.156Z,13.13
2019-03-28T16:19:28.642Z,15.47
2019-03-28T16:21:57.113Z,13.33
2019-03-28T16:24:25.607Z,14.30
2019-03-28T16:26:54.069Z,12.37
2019-03-28T16:29:22.566Z,13.83
2019-03-28T16:31:51.644Z,14.00
2019-03-28T16:34:20.304Z,14.53
2019-03-28T16:36:48.772Z,14.87
2019-03-28T16:39:17.269Z,12.90
2019-03-28T16:41:45.728Z,15.33
2019-03-28T16:44:14.215Z,13.37
2019-03-28T16:46:42.696Z,15.77
2019-03-28T16:49:11.178Z,15.60
2019-03-28T16:51:39.652Z,14.27
2019-03-28T16:54:08.105Z,15.17
2019-03-28T16:56:36.599Z,14.23
2019-03-28T16:59:05.102Z,15.60
2019-03-28T17:01:33.694Z,15.35
2019-03-28T17:04:02.196Z,15.57
2019-03-28T17:06:31.212Z,17.93
2019-03-28T17:09:00.742Z,15.27
2019-03-28T17:11:29.211Z,16.00
2019-03-28T17:13:57.710Z,15.13
2019-03-28T17:16:26.178Z,17.37
2019-03-28T17:18:54.668Z,18.20
2019-03-28T17:21:23.468Z,14.57
2019-03-28T17:23:52.097Z,17.77
2019-03-28T17:26:20.567Z,13.90
2019-03-28T17:28:49.154Z,16.53
2019-03-28T17:31:18.871Z,13.17
2019-03-28T17:33:47.559Z,12.63
2019-03-28T17:36:16.048Z,13.50
2019-03-28T17:38:44.540Z,13.73
2019-03-28T17:41:13.008Z,19.00
2019-03-28T17:43:41.915Z,15.57
2019-03-28T17:46:12.329Z,13.87
2019-03-28T17:48:40.743Z,12.53
2019-03-28T17:51:09.692Z,16.30
2019-03-28T17:53:38.385Z,11.97
2019-03-28T17:56:06.896Z,16.00
2019-03-28T17:58:35.367Z,12.67
2019-03-28T18:01:04.144Z,15.60
2019-03-28T18:03:32.610Z,17.37
2019-03-28T18:06:01.117Z,12.10
2019-03-28T18:08:29.606Z,16.30
2019-03-28T18:11:00.355Z,13.53
2019-03-28T18:13:28.310Z,14.40
2019-03-28T18:15:56.810Z,15.43
2019-03-28T18:18:25.285Z,16.37
2019-03-28T18:20:53.778Z,14.20
2019-03-28T18:23:22.261Z,15.60
2019-03-28T18:25:50.857Z,15.77
2019-03-28T18:28:19.387Z,15.27
2019-03-28T18:30:47.882Z,16.83
2019-03-28T18:33:16.353Z,20.27
2019-03-28T18:35:44.846Z,13.97
2019-03-28T18:38:13.501Z,16.90
2019-03-28T18:40:41.999Z,18.97
2019-03-28T18:43:10.476Z,17.17
2019-03-28T18:45:38.975Z,14.63
2019-03-28T18:48:09.147Z,18.20
2019-03-28T18:50:40.947Z,16.13
2019-03-28T18:53:08.933Z,16.40
2019-03-28T18:55:37.428Z,17.60
2019-03-28T18:58:05.961Z,19.70
2019-03-28T19:00:34.476Z,18.67
2019-03-28T19:03:02.960Z,17.97
2019-03-28T19:05:31.455Z,15.70
2019-03-28T19:08:00.142Z,14.47
2019-03-28T19:10:30.378Z,14.90
2019-03-28T19:12:58.856Z,18.83
2019-03-28T19:15:27.855Z,15.80
2019-03-28T19:17:56.373Z,16.07
2019-03-28T19:20:25.416Z,18.80
2019-03-28T19:22:54.031Z,14.70
2019-03-28T19:25:23.908Z,16.30
2019-03-28T19:27:52.388Z,18.27
2019-03-28T19:30:29.569Z,15.33
2019-03-28T19:32:58.034Z,13.67
2019-03-28T19:35:32.835Z,16.17
2019-03-28T19:37:58.300Z,16.70
2019-03-28T19:40:26.962Z,14.03
2019-03-28T19:42:55.438Z,16.73
2019-03-28T19:45:36.146Z,16.57
2019-03-28T19:48:05.762Z,14.60
2019-03-28T19:50:34.416Z,12.13
2019-03-28T19:53:02.917Z,12.93
2019-03-28T19:55:31.396Z,15.17
2019-03-28T19:57:59.881Z,12.93
2019-03-28T20:00:28.526Z,16.97
2019-03-28T20:03:00.245Z,14.13
2019-03-28T20:05:27.226Z,13.93
2019-03-28T20:07:55.717Z,13.67
2019-03-28T20:10:24.217Z,14.33
2019-03-28T20:12:52.697Z,13.87
2019-03-28T20:15:21.167Z,16.10
2019-03-28T20:17:49.670Z,15.87
2019-03-28T20:20:18.307Z,15.13
2019-03-28T20:22:46.888Z,14.67
2019-03-28T20:25:15.437Z,15.23
2019-03-28T20:27:43.929Z,15.50
2019-03-28T20:30:12.840Z,14.27
2019-03-28T20:32:41.802Z,16.57
2019-03-28T20:35:10.994Z,17.80
2019-03-28T20:37:39.600Z,16.30
2019-03-28T20:40:08.608Z,18.10
2019-03-28T20:42:37.111Z,13.70
2019-03-28T20:45:08.229Z,12.77
2019-03-28T20:47:36.796Z,17.40
2019-03-28T20:50:07.509Z,13.87
2019-03-28T20:52:36.065Z,12.80
2019-03-28T20:55:06.716Z,12.43
2019-03-28T20:57:35.941Z,16.33
2019-03-28T21:00:08.474Z,14.30
2019-03-28T21:02:37.265Z,12.57
2019-03-28T21:05:09.531Z,14.40
2019-03-28T21:07:38.081Z,15.27
2019-03-28T21:10:07.590Z,14.57
2019-03-28T21:12:36.048Z,13.73
2019-03-28T21:15:08.010Z,12.87
2019-03-28T21:17:36.482Z,17.37
2019-03-28T21:20:07.317Z,14.60
2019-03-28T21:22:35.801Z,14.47
2019-03-28T21:25:06.429Z,15.57
2019-03-28T21:27:34.901Z,16.53
2019-03-28T21:30:03.568Z,14.80
2019-03-28T21:32:32.036Z,13.83
2019-03-28T21:35:00.554Z,14.20
2019-03-28T21:37:29.184Z,13.87
2019-03-28T21:39:57.690Z,14.20
2019-03-28T21:42:26.149Z,14.90
2019-03-28T21:44:54.653Z,18.27
2019-03-28T21:47:23.130Z,17.03
2019-03-28T21:49:51.622Z,14.43
2019-03-28T21:52:20.092Z,14.30
2019-03-28T21:54:48.655Z,14.33
2019-03-28T21:57:17.142Z,15.07
2019-03-28T21:59:45.620Z,15.93
2019-03-28T22:02:14.084Z,14.47
2019-03-28T22:04:42.582Z,12.97
2019-03-28T22:07:11.045Z,13.63
2019-03-28T22:09:39.991Z,14.57
2019-03-28T22:12:08.607Z,12.87
2019-03-28T22:14:37.087Z,15.23
2019-03-28T22:17:05.601Z,13.13
2019-03-28T22:19:34.052Z,17.80
2019-03-28T22:22:02.525Z,17.03
2019-03-28T22:24:31.012Z,15.67
2019-03-28T22:26:59.482Z,13.30
2019-03-28T22:29:27.980Z,13.03
2019-03-28T22:31:56.951Z,11.57
2019-03-28T22:34:25.723Z,13.97
2019-03-28T22:36:57.689Z,13.20
2019-03-28T22:39:24.425Z,14.73
2019-03-28T22:41:52.917Z,14.13
2019-03-28T22:44:21.398Z,15.10
2019-03-28T22:46:49.881Z,19.33
2019-03-28T22:49:18.402Z,17.67
2019-03-28T22:51:46.880Z,16.50
2019-03-28T22:54:15.367Z,16.67
2019-03-28T22:56:43.836Z,17.73
2019-03-28T22:59:12.327Z,16.03
2019-03-28T23:01:40.801Z,15.47
2019-03-28T23:04:09.291Z,19.87
2019-03-28T23:06:37.762Z,16.77
2019-03-28T23:09:07.404Z,16.73
2019-03-28T23:11:35.954Z,16.97
2019-03-28T23:14:04.714Z,21.13
2019-03-28T23:16:33.192Z,20.77
2019-03-28T23:19:01.747Z,17.57
2019-03-28T23:21:30.234Z,17.77
2019-03-28T23:23:58.727Z,24.33
2019-03-28T23:26:27.242Z,22.50
2019-03-28T23:28:55.717Z,19.90
2019-03-28T23:31:24.224Z,19.60
2019-03-28T23:33:52.708Z,21.63
2019-03-28T23:36:21.215Z,18.53
2019-03-28T23:38:49.679Z,20.73
2019-03-28T23:41:18.183Z,24.33
2019-03-28T23:43:46.671Z,22.20
2019-03-28T23:46:15.144Z,26.07
2019-03-28T23:48:43.635Z,29.03
2019-03-28T23:51:12.156Z,24.67
2019-03-28T23:53:40.688Z,23.30
2019-03-28T23:56:09.203Z,30.57
2019-03-28T23:58:37.681Z,29.20
